sensor_id;sensor_type;location;lat;lon;timestamp;pressure;altitude;pressure_sealevel;temperature;humidity
33404;BME280;19751;40.274;18.268;2023-05-21T00:00:45;100553.34;;;17.21;100.00
33404;BME280;19751;40.274;18.268;2023-05-21T00:03:10;100563.06;;;17.17;100.00
33404;BME280;19751;40.274;18.268;2023-05-21T00:05:41;100557.97;;;17.20;100.00
33404;BME280;19751;40.274;18.268;2023-05-21T00:08:08;100547.06;;;17.08;100.00
33404;BME280;19751;40.274;18.268;2023-05-21T00:10:34;100545.56;;;17.01;100.00
33404;BME280;19751;40.274;18.268;2023-05-21T00:12:59;100541.88;;;16.95;100.00
33404;BME280;19751;40.274;18.268;2023-05-21T00:15:25;100555.25;;;16.85;100.00
33404;BME280;19751;40.274;18.268;2023-05-21T00:17:50;100536.44;;;16.83;100.00
33404;BME280;19751;40.274;18.268;2023-05-21T00:20:16;100530.97;;;16.83;100.00
33404;BME280;19751;40.274;18.268;2023-05-21T00:22:42;100542.47;;;16.85;100.00
33404;BME280;19751;40.274;18.268;2023-05-21T00:25:09;100536.06;;;16.92;100.00
33404;BME280;19751;40.274;18.268;2023-05-21T00:27:35;100532.16;;;16.87;100.00
33404;BME280;19751;40.274;18.268;2023-05-21T00:30:01;100532.78;;;16.89;100.00
33404;BME280;19751;40.274;18.268;2023-05-21T00:32:27;100537.16;;;16.90;100.00
33404;BME280;19751;40.274;18.268;2023-05-21T00:34:53;100533.69;;;16.83;100.00
33404;BME280;19751;40.274;18.268;2023-05-21T00:37:18;100531.22;;;16.82;100.00
33404;BME280;19751;40.274;18.268;2023-05-21T00:39:45;100530.66;;;16.80;100.00
33404;BME280;19751;40.274;18.268;2023-05-21T00:42:10;100531.94;;;16.77;100.00
33404;BME280;19751;40.274;18.268;2023-05-21T00:44:36;100524.56;;;16.66;100.00
33404;BME280;19751;40.274;18.268;2023-05-21T00:47:03;100526.34;;;16.60;100.00
33404;BME280;19751;40.274;18.268;2023-05-21T00:49:31;100514.84;;;16.58;100.00
33404;BME280;19751;40.274;18.268;2023-05-21T00:51:56;100509.28;;;16.53;100.00
33404;BME280;19751;40.274;18.268;2023-05-21T00:54:25;100517.44;;;16.53;100.00
33404;BME280;19751;40.274;18.268;2023-05-21T00:56:51;100508.59;;;16.58;100.00
33404;BME280;19751;40.274;18.268;2023-05-21T00:59:17;100500.22;;;16.59;100.00
33404;BME280;19751;40.274;18.268;2023-05-21T01:01:43;100503.50;;;16.61;100.00
33404;BME280;19751;40.274;18.268;2023-05-21T01:04:10;100491.22;;;16.59;100.00
33404;BME280;19751;40.274;18.268;2023-05-21T01:06:36;100492.63;;;16.61;100.00
33404;BME280;19751;40.274;18.268;2023-05-21T01:09:02;100498.06;;;16.61;100.00
33404;BME280;19751;40.274;18.268;2023-05-21T01:11:40;100491.72;;;16.68;100.00
33404;BME280;19751;40.274;18.268;2023-05-21T01:14:09;100492.28;;;16.70;100.00
33404;BME280;19751;40.274;18.268;2023-05-21T01:16:39;100494.09;;;16.76;100.00
33404;BME280;19751;40.274;18.268;2023-05-21T01:19:07;100495.97;;;16.75;100.00
33404;BME280;19751;40.274;18.268;2023-05-21T01:21:36;100493.03;;;16.77;100.00
33404;BME280;19751;40.274;18.268;2023-05-21T01:24:05;100502.50;;;16.74;100.00
33404;BME280;19751;40.274;18.268;2023-05-21T01:26:32;100499.56;;;16.76;100.00
33404;BME280;19751;40.274;18.268;2023-05-21T01:29:05;100492.03;;;16.71;100.00
33404;BME280;19751;40.274;18.268;2023-05-21T01:31:40;100486.72;;;16.64;100.00
33404;BME280;19751;40.274;18.268;2023-05-21T01:34:10;100480.13;;;16.60;100.00
33404;BME280;19751;40.274;18.268;2023-05-21T01:36:40;100472.41;;;16.57;100.00
33404;BME280;19751;40.274;18.268;2023-05-21T01:39:15;100478.47;;;16.59;100.00
33404;BME280;19751;40.274;18.268;2023-05-21T01:41:44;100477.38;;;16.60;100.00
33404;BME280;19751;40.274;18.268;2023-05-21T01:44:11;100483.06;;;16.59;100.00
33404;BME280;19751;40.274;18.268;2023-05-21T01:46:39;100480.09;;;16.49;100.00
33404;BME280;19751;40.274;18.268;2023-05-21T01:49:05;100478.53;;;16.41;100.00
33404;BME280;19751;40.274;18.268;2023-05-21T01:51:32;100475.09;;;16.34;100.00
33404;BME280;19751;40.274;18.268;2023-05-21T01:53:58;100468.63;;;16.35;100.00
33404;BME280;19751;40.274;18.268;2023-05-21T01:56:24;100470.50;;;16.34;100.00
33404;BME280;19751;40.274;18.268;2023-05-21T01:58:50;100464.84;;;16.36;100.00
33404;BME280;19751;40.274;18.268;2023-05-21T02:01:16;100456.44;;;16.37;100.00
33404;BME280;19751;40.274;18.268;2023-05-21T02:03:42;100458.94;;;16.39;100.00
33404;BME280;19751;40.274;18.268;2023-05-21T02:06:07;100450.06;;;16.44;100.00
33404;BME280;19751;40.274;18.268;2023-05-21T02:08:33;100457.16;;;16.45;100.00
33404;BME280;19751;40.274;18.268;2023-05-21T02:10:58;100447.47;;;16.49;100.00
33404;BME280;19751;40.274;18.268;2023-05-21T02:13:24;100447.34;;;16.44;100.00
33404;BME280;19751;40.274;18.268;2023-05-21T02:15:49;100444.84;;;16.42;100.00
33404;BME280;19751;40.274;18.268;2023-05-21T02:18:18;100434.34;;;16.46;100.00
33404;BME280;19751;40.274;18.268;2023-05-21T02:20:46;100438.13;;;16.45;100.00
33404;BME280;19751;40.274;18.268;2023-05-21T02:23:11;100435.06;;;16.41;100.00
33404;BME280;19751;40.274;18.268;2023-05-21T02:25:37;100432.13;;;16.43;100.00
33404;BME280;19751;40.274;18.268;2023-05-21T02:28:03;100434.69;;;16.37;100.00
33404;BME280;19751;40.274;18.268;2023-05-21T02:30:28;100432.31;;;16.29;100.00
33404;BME280;19751;40.274;18.268;2023-05-21T02:32:54;100426.56;;;16.26;100.00
33404;BME280;19751;40.274;18.268;2023-05-21T02:35:20;100420.88;;;16.27;100.00
33404;BME280;19751;40.274;18.268;2023-05-21T02:37:45;100416.25;;;16.28;100.00
33404;BME280;19751;40.274;18.268;2023-05-21T02:40:11;100422.16;;;16.36;100.00
33404;BME280;19751;40.274;18.268;2023-05-21T02:42:38;100420.75;;;16.46;100.00
33404;BME280;19751;40.274;18.268;2023-05-21T02:45:13;100424.78;;;16.55;100.00
33404;BME280;19751;40.274;18.268;2023-05-21T02:47:38;100428.19;;;16.62;100.00
33404;BME280;19751;40.274;18.268;2023-05-21T02:50:05;100429.75;;;16.70;100.00
33404;BME280;19751;40.274;18.268;2023-05-21T02:52:31;100429.66;;;16.76;100.00
33404;BME280;19751;40.274;18.268;2023-05-21T02:54:57;100432.75;;;16.80;100.00
33404;BME280;19751;40.274;18.268;2023-05-21T02:57:22;100429.06;;;16.74;100.00
33404;BME280;19751;40.274;18.268;2023-05-21T02:59:48;100433.28;;;16.70;100.00
33404;BME280;19751;40.274;18.268;2023-05-21T03:02:13;100426.59;;;16.73;100.00
33404;BME280;19751;40.274;18.268;2023-05-21T03:04:39;100418.03;;;16.69;100.00
33404;BME280;19751;40.274;18.268;2023-05-21T03:07:11;100423.13;;;16.65;100.00
33404;BME280;19751;40.274;18.268;2023-05-21T03:09:39;100421.09;;;16.49;100.00
33404;BME280;19751;40.274;18.268;2023-05-21T03:12:05;100427.72;;;16.41;100.00
33404;BME280;19751;40.274;18.268;2023-05-21T03:14:31;100437.66;;;16.36;100.00
33404;BME280;19751;40.274;18.268;2023-05-21T03:16:56;100430.78;;;16.33;100.00
33404;BME280;19751;40.274;18.268;2023-05-21T03:19:22;100439.88;;;16.27;100.00
33404;BME280;19751;40.274;18.268;2023-05-21T03:21:49;100435.16;;;16.23;100.00
33404;BME280;19751;40.274;18.268;2023-05-21T03:24:15;100433.25;;;16.23;100.00
33404;BME280;19751;40.274;18.268;2023-05-21T03:26:40;100441.78;;;16.27;100.00
33404;BME280;19751;40.274;18.268;2023-05-21T03:29:06;100454.06;;;16.29;100.00
33404;BME280;19751;40.274;18.268;2023-05-21T03:31:31;100448.63;;;16.29;100.00
33404;BME280;19751;40.274;18.268;2023-05-21T03:33:56;100450.75;;;16.27;100.00
33404;BME280;19751;40.274;18.268;2023-05-21T03:36:23;100451.34;;;16.29;100.00
33404;BME280;19751;40.274;18.268;2023-05-21T03:38:49;100449.47;;;16.30;100.00
33404;BME280;19751;40.274;18.268;2023-05-21T03:41:14;100451.59;;;16.28;100.00
33404;BME280;19751;40.274;18.268;2023-05-21T03:43:40;100443.31;;;16.23;100.00
33404;BME280;19751;40.274;18.268;2023-05-21T03:46:05;100432.91;;;16.20;100.00
33404;BME280;19751;40.274;18.268;2023-05-21T03:48:30;100432.66;;;16.21;100.00
33404;BME280;19751;40.274;18.268;2023-05-21T03:50:56;100429.38;;;16.31;100.00
33404;BME280;19751;40.274;18.268;2023-05-21T03:53:22;100429.25;;;16.37;100.00
33404;BME280;19751;40.274;18.268;2023-05-21T03:55:47;100436.25;;;16.45;100.00
33404;BME280;19751;40.274;18.268;2023-05-21T03:58:20;100433.41;;;16.52;100.00
33404;BME280;19751;40.274;18.268;2023-05-21T04:00:46;100447.13;;;16.57;100.00
33404;BME280;19751;40.274;18.268;2023-05-21T04:03:12;100444.75;;;16.60;100.00
33404;BME280;19751;40.274;18.268;2023-05-21T04:05:40;100437.53;;;16.54;100.00
33404;BME280;19751;40.274;18.268;2023-05-21T04:08:06;100428.19;;;16.50;100.00
33404;BME280;19751;40.274;18.268;2023-05-21T04:10:31;100428.69;;;16.47;100.00
33404;BME280;19751;40.274;18.268;2023-05-21T04:12:57;100428.69;;;16.47;100.00
33404;BME280;19751;40.274;18.268;2023-05-21T04:15:22;100431.03;;;16.44;100.00
33404;BME280;19751;40.274;18.268;2023-05-21T04:17:48;100431.50;;;16.40;100.00
33404;BME280;19751;40.274;18.268;2023-05-21T04:20:14;100436.00;;;16.35;100.00
33404;BME280;19751;40.274;18.268;2023-05-21T04:22:41;100432.81;;;16.26;100.00
33404;BME280;19751;40.274;18.268;2023-05-21T04:25:07;100442.50;;;16.22;100.00
33404;BME280;19751;40.274;18.268;2023-05-21T04:27:33;100433.97;;;16.19;100.00
33404;BME280;19751;40.274;18.268;2023-05-21T04:29:59;100445.06;;;16.17;100.00
33404;BME280;19751;40.274;18.268;2023-05-21T04:32:25;100442.00;;;16.13;100.00
33404;BME280;19751;40.274;18.268;2023-05-21T04:34:54;100450.16;;;16.13;100.00
33404;BME280;19751;40.274;18.268;2023-05-21T04:37:19;100435.03;;;16.18;100.00
33404;BME280;19751;40.274;18.268;2023-05-21T04:39:49;100445.22;;;16.22;100.00
33404;BME280;19751;40.274;18.268;2023-05-21T04:42:15;100445.56;;;16.26;100.00
33404;BME280;19751;40.274;18.268;2023-05-21T04:44:40;100441.31;;;16.30;100.00
33404;BME280;19751;40.274;18.268;2023-05-21T04:47:08;100436.81;;;16.35;100.00
33404;BME280;19751;40.274;18.268;2023-05-21T04:49:36;100441.31;;;16.41;100.00
33404;BME280;19751;40.274;18.268;2023-05-21T04:52:02;100437.78;;;16.53;100.00
33404;BME280;19751;40.274;18.268;2023-05-21T04:54:27;100444.50;;;16.62;100.00
33404;BME280;19751;40.274;18.268;2023-05-21T04:56:53;100445.22;;;16.69;100.00
33404;BME280;19751;40.274;18.268;2023-05-21T04:59:19;100443.25;;;16.76;100.00
33404;BME280;19751;40.274;18.268;2023-05-21T05:01:45;100440.66;;;16.81;100.00
33404;BME280;19751;40.274;18.268;2023-05-21T05:04:11;100442.41;;;16.87;100.00
33404;BME280;19751;40.274;18.268;2023-05-21T05:06:37;100447.97;;;16.93;100.00
33404;BME280;19751;40.274;18.268;2023-05-21T05:09:02;100442.91;;;16.96;100.00
33404;BME280;19751;40.274;18.268;2023-05-21T05:11:29;100445.38;;;16.98;100.00
33404;BME280;19751;40.274;18.268;2023-05-21T05:13:54;100438.59;;;17.00;100.00
33404;BME280;19751;40.274;18.268;2023-05-21T05:16:20;100441.09;;;17.02;100.00
33404;BME280;19751;40.274;18.268;2023-05-21T05:18:52;100438.59;;;17.00;100.00
33404;BME280;19751;40.274;18.268;2023-05-21T05:21:20;100445.94;;;17.00;100.00
33404;BME280;19751;40.274;18.268;2023-05-21T05:23:46;100449.72;;;16.99;100.00
33404;BME280;19751;40.274;18.268;2023-05-21T05:26:12;100448.66;;;17.00;100.00
33404;BME280;19751;40.274;18.268;2023-05-21T05:28:37;100447.38;;;17.02;100.00
33404;BME280;19751;40.274;18.268;2023-05-21T05:31:03;100443.56;;;17.03;100.00
33404;BME280;19751;40.274;18.268;2023-05-21T05:33:28;100445.00;;;17.06;100.00
33404;BME280;19751;40.274;18.268;2023-05-21T05:35:54;100459.78;;;17.10;100.00
33404;BME280;19751;40.274;18.268;2023-05-21T05:38:20;100446.75;;;17.12;100.00
33404;BME280;19751;40.274;18.268;2023-05-21T05:40:45;100447.09;;;17.15;100.00
33404;BME280;19751;40.274;18.268;2023-05-21T05:43:11;100442.81;;;17.20;100.00
33404;BME280;19751;40.274;18.268;2023-05-21T05:45:36;100444.25;;;17.22;100.00
33404;BME280;19751;40.274;18.268;2023-05-21T05:48:02;100443.91;;;17.19;100.00
33404;BME280;19751;40.274;18.268;2023-05-21T05:50:27;100440.47;;;17.11;100.00
33404;BME280;19751;40.274;18.268;2023-05-21T05:52:53;100443.81;;;17.13;100.00
33404;BME280;19751;40.274;18.268;2023-05-21T05:55:18;100444.38;;;17.15;100.00
33404;BME280;19751;40.274;18.268;2023-05-21T05:57:44;100439.75;;;17.16;100.00
33404;BME280;19751;40.274;18.268;2023-05-21T06:00:10;100440.34;;;17.18;100.00
33404;BME280;19751;40.274;18.268;2023-05-21T06:02:36;100438.22;;;17.20;100.00
33404;BME280;19751;40.274;18.268;2023-05-21T06:05:02;100436.09;;;17.22;100.00
33404;BME280;19751;40.274;18.268;2023-05-21T06:07:28;100441.53;;;17.22;100.00
33404;BME280;19751;40.274;18.268;2023-05-21T06:09:54;100444.81;;;17.24;100.00
33404;BME280;19751;40.274;18.268;2023-05-21T06:12:19;100444.34;;;17.27;100.00
33404;BME280;19751;40.274;18.268;2023-05-21T06:14:45;100438.66;;;17.29;100.00
33404;BME280;19751;40.274;18.268;2023-05-21T06:17:13;100439.25;;;17.31;100.00
33404;BME280;19751;40.274;18.268;2023-05-21T06:19:38;100433.34;;;17.34;100.00
33404;BME280;19751;40.274;18.268;2023-05-21T06:22:04;100437.44;;;17.36;100.00
33404;BME280;19751;40.274;18.268;2023-05-21T06:24:30;100431.28;;;17.41;100.00
33404;BME280;19751;40.274;18.268;2023-05-21T06:26:55;100426.09;;;17.39;100.00
33404;BME280;19751;40.274;18.268;2023-05-21T06:29:21;100426.91;;;17.40;100.00
33404;BME280;19751;40.274;18.268;2023-05-21T06:31:48;100432.72;;;17.44;100.00
33404;BME280;19751;40.274;18.268;2023-05-21T06:34:13;100425.44;;;17.49;100.00
33404;BME280;19751;40.274;18.268;2023-05-21T06:36:39;100422.59;;;17.56;100.00
33404;BME280;19751;40.274;18.268;2023-05-21T06:39:05;100417.84;;;17.63;100.00
33404;BME280;19751;40.274;18.268;2023-05-21T06:41:31;100426.09;;;17.68;100.00
33404;BME280;19751;40.274;18.268;2023-05-21T06:43:56;100425.38;;;17.73;100.00
33404;BME280;19751;40.274;18.268;2023-05-21T06:46:22;100415.53;;;17.72;100.00
33404;BME280;19751;40.274;18.268;2023-05-21T06:48:47;100416.97;;;17.74;100.00
33404;BME280;19751;40.274;18.268;2023-05-21T06:51:13;100411.28;;;17.76;100.00
33404;BME280;19751;40.274;18.268;2023-05-21T06:53:38;100405.03;;;17.75;100.00
33404;BME280;19751;40.274;18.268;2023-05-21T06:56:04;100399.31;;;17.77;100.00
33404;BME280;19751;40.274;18.268;2023-05-21T06:58:30;100411.84;;;17.78;100.00
33404;BME280;19751;40.274;18.268;2023-05-21T07:00:56;100412.69;;;17.78;100.00
33404;BME280;19751;40.274;18.268;2023-05-21T07:03:22;100401.78;;;17.78;100.00
33404;BME280;19751;40.274;18.268;2023-05-21T07:05:48;100404.50;;;17.78;100.00
33404;BME280;19751;40.274;18.268;2023-05-21T07:08:13;100400.97;;;17.78;100.00
33404;BME280;19751;40.274;18.268;2023-05-21T07:10:39;100401.22;;;17.76;100.00
33404;BME280;19751;40.274;18.268;2023-05-21T07:13:04;100397.41;;;17.77;100.00
33404;BME280;19751;40.274;18.268;2023-05-21T07:15:30;100396.34;;;17.78;100.00
33404;BME280;19751;40.274;18.268;2023-05-21T07:17:55;100393.38;;;17.80;100.00
33404;BME280;19751;40.274;18.268;2023-05-21T07:20:21;100402.13;;;17.82;100.00
33404;BME280;19751;40.274;18.268;2023-05-21T07:22:46;100393.72;;;17.83;100.00
33404;BME280;19751;40.274;18.268;2023-05-21T07:25:12;100397.34;;;17.89;100.00
33404;BME280;19751;40.274;18.268;2023-05-21T07:27:38;100397.69;;;17.93;100.00
33404;BME280;19751;40.274;18.268;2023-05-21T07:30:04;100392.88;;;18.00;100.00
33404;BME280;19751;40.274;18.268;2023-05-21T07:32:30;100396.28;;;18.07;100.00
33404;BME280;19751;40.274;18.268;2023-05-21T07:34:58;100392.81;;;18.11;100.00
33404;BME280;19751;40.274;18.268;2023-05-21T07:37:26;100385.22;;;18.13;100.00
33404;BME280;19751;40.274;18.268;2023-05-21T07:39:53;100384.31;;;18.08;100.00
33404;BME280;19751;40.274;18.268;2023-05-21T07:42:18;100387.28;;;18.06;100.00
33404;BME280;19751;40.274;18.268;2023-05-21T07:44:44;100376.38;;;18.06;100.00
33404;BME280;19751;40.274;18.268;2023-05-21T07:47:10;100381.00;;;18.06;100.00
33404;BME280;19751;40.274;18.268;2023-05-21T07:49:35;100383.47;;;18.07;100.00
33404;BME280;19751;40.274;18.268;2023-05-21T07:52:01;100390.84;;;18.07;100.00
33404;BME280;19751;40.274;18.268;2023-05-21T07:54:27;100393.56;;;18.07;100.00
33404;BME280;19751;40.274;18.268;2023-05-21T07:56:52;100388.94;;;18.07;100.00
33404;BME280;19751;40.274;18.268;2023-05-21T07:59:18;100395.22;;;18.08;100.00
33404;BME280;19751;40.274;18.268;2023-05-21T08:01:43;100396.88;;;18.09;100.00
33404;BME280;19751;40.274;18.268;2023-05-21T08:04:09;100388.44;;;18.10;100.00
33404;BME280;19751;40.274;18.268;2023-05-21T08:06:34;100395.06;;;18.14;100.00
33404;BME280;19751;40.274;18.268;2023-05-21T08:09:02;100400.59;;;18.20;100.00
33404;BME280;19751;40.274;18.268;2023-05-21T08:11:28;100395.47;;;18.23;100.00
33404;BME280;19751;40.274;18.268;2023-05-21T08:13:54;100409.59;;;18.20;100.00
33404;BME280;19751;40.274;18.268;2023-05-21T08:16:20;100406.84;;;18.20;100.00
33404;BME280;19751;40.274;18.268;2023-05-21T08:18:48;100404.13;;;18.20;100.00
33404;BME280;19751;40.274;18.268;2023-05-21T08:21:13;100405.53;;;18.23;100.00
33404;BME280;19751;40.274;18.268;2023-05-21T08:23:39;100407.53;;;18.27;100.00
33404;BME280;19751;40.274;18.268;2023-05-21T08:26:05;100408.13;;;18.29;100.00
33404;BME280;19751;40.274;18.268;2023-05-21T08:28:31;100403.81;;;18.33;100.00
33404;BME280;19751;40.274;18.268;2023-05-21T08:30:57;100399.19;;;18.34;100.00
33404;BME280;19751;40.274;18.268;2023-05-21T08:33:22;100410.66;;;18.36;100.00
33404;BME280;19751;40.274;18.268;2023-05-21T08:35:48;100415.28;;;18.35;100.00
33404;BME280;19751;40.274;18.268;2023-05-21T08:38:14;100412.56;;;18.35;100.00
33404;BME280;19751;40.274;18.268;2023-05-21T08:40:41;100407.94;;;18.36;100.00
33404;BME280;19751;40.274;18.268;2023-05-21T08:43:06;100414.22;;;18.36;100.00
33404;BME280;19751;40.274;18.268;2023-05-21T08:45:37;100417.75;;;18.37;100.00
33404;BME280;19751;40.274;18.268;2023-05-21T08:48:07;100413.38;;;18.36;100.00
33404;BME280;19751;40.274;18.268;2023-05-21T08:50:33;100421.81;;;18.34;100.00
33404;BME280;19751;40.274;18.268;2023-05-21T08:52:59;100412.22;;;18.32;100.00
33404;BME280;19751;40.274;18.268;2023-05-21T08:55:28;100416.03;;;18.31;100.00
33404;BME280;19751;40.274;18.268;2023-05-21T08:57:55;100414.41;;;18.30;100.00
33404;BME280;19751;40.274;18.268;2023-05-21T09:00:21;100418.44;;;18.27;100.00
33404;BME280;19751;40.274;18.268;2023-05-21T09:02:47;100420.81;;;18.24;100.00
33404;BME280;19751;40.274;18.268;2023-05-21T09:05:13;100410.44;;;18.21;100.00
33404;BME280;19751;40.274;18.268;2023-05-21T09:07:59;100426.53;;;18.22;100.00
33404;BME280;19751;40.274;18.268;2023-05-21T09:10:51;100422.72;;;18.23;100.00
33404;BME280;19751;40.274;18.268;2023-05-21T09:13:17;100418.91;;;18.24;100.00
33404;BME280;19751;40.274;18.268;2023-05-21T09:15:44;100426.59;;;18.27;100.00
33404;BME280;19751;40.274;18.268;2023-05-21T09:18:10;100419.59;;;18.31;100.00
33404;BME280;19751;40.274;18.268;2023-05-21T09:20:36;100425.31;;;18.30;100.00
33404;BME280;19751;40.274;18.268;2023-05-21T09:23:03;100419.84;;;18.30;100.00
33404;BME280;19751;40.274;18.268;2023-05-21T09:25:30;100422.31;;;18.31;100.00
33404;BME280;19751;40.274;18.268;2023-05-21T09:27:56;100422.31;;;18.31;100.00
33404;BME280;19751;40.274;18.268;2023-05-21T09:30:33;100433.22;;;18.31;100.00
33404;BME280;19751;40.274;18.268;2023-05-21T09:32:59;100427.75;;;18.31;100.00
33404;BME280;19751;40.274;18.268;2023-05-21T09:35:25;100426.13;;;18.30;100.00
33404;BME280;19751;40.274;18.268;2023-05-21T09:37:52;100428.03;;;18.30;100.00
33404;BME280;19751;40.274;18.268;2023-05-21T09:40:19;100429.66;;;18.31;100.00
33404;BME280;19751;40.274;18.268;2023-05-21T09:42:49;100427.75;;;18.31;100.00
33404;BME280;19751;40.274;18.268;2023-05-21T09:45:19;100431.56;;;18.30;100.00
33404;BME280;19751;40.274;18.268;2023-05-21T09:47:46;100429.94;;;18.29;100.00
33404;BME280;19751;40.274;18.268;2023-05-21T09:50:23;100431.56;;;18.30;100.00
33404;BME280;19751;40.274;18.268;2023-05-21T09:52:49;100432.13;;;18.32;100.00
33404;BME280;19751;40.274;18.268;2023-05-21T09:55:18;100430.81;;;18.35;100.00
33404;BME280;19751;40.274;18.268;2023-05-21T09:57:47;100433.88;;;18.38;100.00
33404;BME280;19751;40.274;18.268;2023-05-21T10:00:19;100439.69;;;18.42;100.00
33404;BME280;19751;40.274;18.268;2023-05-21T10:02:46;100427.75;;;18.48;100.00
33404;BME280;19751;40.274;18.268;2023-05-21T10:05:13;100439.00;;;18.52;100.00
33404;BME280;19751;40.274;18.268;2023-05-21T10:08:03;100436.13;;;18.58;100.00
33404;BME280;19751;40.274;18.268;2023-05-21T10:10:30;100433.69;;;18.62;100.00
33404;BME280;19751;40.274;18.268;2023-05-21T10:13:03;100440.28;;;18.66;100.00
33404;BME280;19751;40.274;18.268;2023-05-21T10:15:37;100441.47;;;18.70;100.00
33404;BME280;19751;40.274;18.268;2023-05-21T10:18:03;100440.22;;;18.78;100.00
33404;BME280;19751;40.274;18.268;2023-05-21T10:20:31;100439.72;;;18.81;100.00
33404;BME280;19751;40.274;18.268;2023-05-21T10:22:58;100439.25;;;18.84;100.00
33404;BME280;19751;40.274;18.268;2023-05-21T10:25:24;100440.38;;;18.88;100.00
33404;BME280;19751;40.274;18.268;2023-05-21T10:27:50;100452.19;;;18.94;100.00
33404;BME280;19751;40.274;18.268;2023-05-21T10:30:20;100444.31;;;18.97;100.00
33404;BME280;19751;40.274;18.268;2023-05-21T10:32:47;100442.16;;;18.99;100.00
33404;BME280;19751;40.274;18.268;2023-05-21T10:35:15;100445.22;;;19.03;100.00
33404;BME280;19751;40.274;18.268;2023-05-21T10:37:42;100442.81;;;19.06;100.00
33404;BME280;19751;40.274;18.268;2023-05-21T10:40:08;100439.56;;;19.09;100.00
33404;BME280;19751;40.274;18.268;2023-05-21T10:56:27;100444.53;;;19.34;100.00
33404;BME280;19751;40.274;18.268;2023-05-21T10:59:15;100444.66;;;19.45;100.00
33404;BME280;19751;40.274;18.268;2023-05-21T11:01:48;100437.66;;;19.54;100.00
33404;BME280;19751;40.274;18.268;2023-05-21T11:04:21;100440.44;;;19.59;100.00
33404;BME280;19751;40.274;18.268;2023-05-21T11:06:47;100445.19;;;19.64;100.00
33404;BME280;19751;40.274;18.268;2023-05-21T11:09:13;100437.84;;;19.69;100.00
33404;BME280;19751;40.274;18.268;2023-05-21T11:11:50;100440.13;;;19.77;100.00
33404;BME280;19751;40.274;18.268;2023-05-21T11:14:38;100439.09;;;19.83;100.00
33404;BME280;19751;40.274;18.268;2023-05-21T11:17:10;100442.75;;;19.94;100.00
33404;BME280;19751;40.274;18.268;2023-05-21T11:19:45;100431.34;;;20.02;100.00
33404;BME280;19751;40.274;18.268;2023-05-21T11:22:23;100434.16;;;20.07;100.00
33404;BME280;19751;40.274;18.268;2023-05-21T11:24:50;100437.75;;;20.13;100.00
33404;BME280;19751;40.274;18.268;2023-05-21T11:27:39;100437.75;;;20.13;100.00
33404;BME280;19751;40.274;18.268;2023-05-21T11:30:06;100436.59;;;20.09;100.00
33404;BME280;19751;40.274;18.268;2023-05-21T11:32:36;100434.16;;;20.07;100.00
33404;BME280;19751;40.274;18.268;2023-05-21T11:35:03;100433.28;;;20.07;100.00
33404;BME280;19751;40.274;18.268;2023-05-21T11:37:30;100446.22;;;20.11;100.00
33404;BME280;19751;40.274;18.268;2023-05-21T11:40:21;100445.94;;;20.13;100.00
33404;BME280;19751;40.274;18.268;2023-05-21T11:42:50;100437.75;;;20.13;100.00
33404;BME280;19751;40.274;18.268;2023-05-21T11:45:17;100447.59;;;20.14;100.00
33404;BME280;19751;40.274;18.268;2023-05-21T11:47:45;100440.50;;;20.18;100.00
33404;BME280;19751;40.274;18.268;2023-05-21T11:50:12;100438.91;;;20.22;100.00
33404;BME280;19751;40.274;18.268;2023-05-21T11:52:38;100443.34;;;20.28;100.00
33404;BME280;19751;40.274;18.268;2023-05-21T11:55:05;100427.78;;;20.34;100.00
33404;BME280;19751;40.274;18.268;2023-05-21T11:57:31;100430.84;;;20.38;100.00
33404;BME280;19751;40.274;18.268;2023-05-21T11:59:59;100429.88;;;20.49;100.00
33404;BME280;19751;40.274;18.268;2023-05-21T12:02:34;100427.97;;;20.54;100.00
33404;BME280;19751;40.274;18.268;2023-05-21T12:05:00;100430.22;;;20.63;100.00
33404;BME280;19751;40.274;18.268;2023-05-21T12:07:27;100427.25;;;20.69;100.00
33404;BME280;19751;40.274;18.268;2023-05-21T12:09:54;100429.75;;;20.76;100.00
33404;BME280;19751;40.274;18.268;2023-05-21T12:12:21;100423.47;;;20.80;100.00
33404;BME280;19751;40.274;18.268;2023-05-21T12:14:51;100421.63;;;20.86;100.00
33404;BME280;19751;40.274;18.268;2023-05-21T12:17:19;100424.63;;;20.90;100.00
33404;BME280;19751;40.274;18.268;2023-05-21T12:19:46;100424.13;;;20.98;100.00
33404;BME280;19751;40.274;18.268;2023-05-21T12:22:12;100420.06;;;21.05;100.00
33404;BME280;19751;40.274;18.268;2023-05-21T12:24:41;100417.91;;;21.18;100.00
33404;BME280;19751;40.274;18.268;2023-05-21T12:27:08;100421.50;;;21.23;100.00
33404;BME280;19751;40.274;18.268;2023-05-21T12:29:41;100414.38;;;21.27;100.00
33404;BME280;19751;40.274;18.268;2023-05-21T12:32:09;100421.25;;;21.30;100.00
33404;BME280;19751;40.274;18.268;2023-05-21T12:34:50;100418.53;;;21.30;100.00
33404;BME280;19751;40.274;18.268;2023-05-21T12:37:20;100419.34;;;21.30;100.00
33404;BME280;19751;40.274;18.268;2023-05-21T12:39:48;100420.97;;;21.31;100.00
33404;BME280;19751;40.274;18.268;2023-05-21T12:42:14;100415.50;;;21.31;100.00
33404;BME280;19751;40.274;18.268;2023-05-21T12:44:44;100425.41;;;21.32;100.00